createdAt,value
2018-08-06T00:00:03.287Z,12.40
2018-08-06T00:02:31.516Z,12.30
2018-08-06T00:05:00.043Z,12.30
2018-08-06T00:07:27.863Z,12.30
2018-08-06T00:09:55.772Z,12.20
2018-08-06T00:12:24.248Z,12.20
2018-08-06T00:14:53.502Z,12.20
2018-08-06T00:17:21.412Z,12.10
2018-08-06T00:19:49.753Z,12.00
2018-08-06T00:22:24.589Z,11.90
2018-08-06T00:24:52.622Z,11.90
2018-08-06T00:27:21.008Z,11.80
2018-08-06T00:32:16.899Z,11.90
2018-08-06T00:34:45.133Z,11.90
2018-08-06T00:37:13.069Z,11.90
2018-08-06T00:39:41.778Z,11.90
2018-08-06T00:42:16.932Z,11.80
2018-08-06T00:44:45.104Z,11.80
2018-08-06T00:47:13.222Z,11.80
2018-08-06T00:49:41.058Z,11.80
2018-08-06T00:52:09.241Z,11.70
2018-08-06T00:54:37.044Z,11.60
2018-08-06T00:59:32.812Z,11.50
2018-08-06T01:02:01.526Z,11.50
2018-08-06T01:04:29.551Z,11.40
2018-08-06T01:06:57.629Z,11.40
2018-08-06T01:09:25.869Z,11.40
2018-08-06T01:11:53.639Z,11.50
2018-08-06T01:14:22.354Z,11.50
2018-08-06T01:16:50.343Z,11.50
2018-08-06T01:19:18.601Z,11.40
2018-08-06T01:21:46.457Z,11.40
2018-08-06T01:24:14.321Z,11.30
2018-08-06T01:26:42.478Z,11.30
2018-08-06T01:29:11.040Z,11.20
2018-08-06T01:31:39.025Z,11.20
2018-08-06T01:36:36.146Z,11.10
2018-08-06T01:39:07.437Z,11.10
2018-08-06T01:46:33.891Z,11.00
2018-08-06T01:51:29.848Z,10.90
2018-08-06T01:53:57.631Z,10.80
2018-08-06T01:56:25.641Z,10.80
2018-08-06T01:58:53.782Z,10.80
2018-08-06T02:01:21.852Z,10.80
2018-08-06T02:03:50.333Z,10.80
2018-08-06T02:06:18.158Z,10.80
2018-08-06T02:08:46.314Z,10.80
2018-08-06T02:11:14.723Z,10.80
2018-08-06T02:13:43.161Z,10.80
2018-08-06T02:16:11.298Z,10.80
2018-08-06T02:18:39.232Z,10.70
2018-08-06T02:23:35.129Z,10.70
2018-08-06T02:26:03.304Z,10.60
2018-08-06T02:28:31.335Z,10.60
2018-08-06T02:30:59.193Z,10.60
2018-08-06T02:33:27.107Z,10.60
2018-08-06T02:35:54.969Z,10.50
2018-08-06T02:38:23.580Z,10.50
2018-08-06T02:40:51.622Z,10.50
2018-08-06T02:43:19.566Z,10.40
2018-08-06T02:45:47.650Z,10.40
2018-08-06T02:48:15.621Z,10.40
2018-08-06T02:50:43.642Z,10.30
2018-08-06T02:55:40.089Z,10.30
2018-08-06T03:03:04.264Z,10.20
2018-08-06T03:05:32.177Z,10.20
2018-08-06T03:08:00.096Z,10.10
2018-08-06T03:10:28.176Z,10.10
2018-08-06T03:12:56.873Z,10.10
2018-08-06T03:15:25.615Z,10.10
2018-08-06T03:17:53.414Z,10.10
2018-08-06T03:20:21.467Z,10.10
2018-08-06T03:22:49.334Z,10.00
2018-08-06T03:25:17.263Z,10.00
2018-08-06T03:27:45.527Z,10.00
2018-08-06T03:30:15.199Z,10.00
2018-08-06T03:32:44.429Z,10.00
2018-08-06T03:35:12.829Z,10.00
2018-08-06T03:37:40.933Z,10.00
2018-08-06T03:40:09.554Z,9.90
2018-08-06T03:45:06.995Z,9.80
2018-08-06T03:47:35.012Z,9.80
2018-08-06T03:50:04.137Z,9.70
2018-08-06T03:52:32.338Z,9.70
2018-08-06T03:55:00.311Z,9.70
2018-08-06T03:57:28.542Z,9.70
2018-08-06T03:59:56.482Z,9.80
2018-08-06T04:02:24.930Z,9.70
2018-08-06T04:04:53.346Z,9.70
2018-08-06T04:07:22.215Z,9.70
2018-08-06T04:12:18.196Z,9.70
2018-08-06T04:14:46.731Z,9.70
2018-08-06T04:17:14.785Z,9.70
2018-08-06T04:19:42.952Z,9.80
2018-08-06T04:22:10.909Z,9.80
2018-08-06T04:24:39.003Z,9.70
2018-08-06T04:27:07.094Z,9.70
2018-08-06T04:32:02.925Z,9.70
2018-08-06T04:36:58.871Z,9.70
2018-08-06T04:39:27.104Z,9.70
2018-08-06T04:41:54.949Z,9.80
2018-08-06T04:44:23.070Z,9.80
2018-08-06T04:49:18.967Z,9.80
2018-08-06T04:51:46.908Z,9.90
2018-08-06T04:54:15.820Z,10.00
2018-08-06T04:56:44.509Z,10.00
2018-08-06T04:59:12.516Z,10.10
2018-08-06T05:04:08.463Z,10.20
2018-08-06T05:06:37.888Z,10.20
2018-08-06T05:09:09.415Z,10.30
2018-08-06T05:11:38.963Z,10.40
2018-08-06T05:14:08.994Z,10.40
2018-08-06T05:16:37.541Z,10.50
2018-08-06T05:19:05.457Z,10.60
2018-08-06T05:21:34.860Z,10.60
2018-08-06T05:24:03.125Z,10.70
2018-08-06T05:26:30.914Z,10.80
2018-08-06T05:28:58.917Z,10.80
2018-08-06T05:31:27.741Z,10.90
2018-08-06T05:33:56.903Z,10.90
2018-08-06T05:36:24.915Z,11.00
2018-08-06T05:38:54.433Z,11.20
2018-08-06T05:43:54.468Z,11.60
2018-08-06T05:46:22.509Z,11.90
2018-08-06T05:48:50.622Z,12.10
2018-08-06T05:51:18.728Z,12.20
2018-08-06T05:53:46.886Z,12.40
2018-08-06T05:56:14.803Z,12.80
2018-08-06T05:58:42.981Z,13.10
2018-08-06T06:01:11.068Z,13.20
2018-08-06T06:08:36.732Z,13.70
2018-08-06T06:11:05.723Z,14.10
2018-08-06T06:13:35.225Z,14.80
2018-08-06T06:16:03.536Z,15.40
2018-08-06T06:18:31.773Z,16.40
2018-08-06T06:21:00.112Z,17.50
2018-08-06T06:23:28.194Z,18.60
2018-08-06T06:25:56.775Z,19.50
2018-08-06T06:28:25.235Z,20.40
2018-08-06T06:30:53.542Z,21.00
2018-08-06T06:33:21.371Z,21.60
2018-08-06T06:35:49.327Z,22.10
2018-08-06T06:38:17.400Z,22.60
2018-08-06T06:40:45.500Z,22.90
2018-08-06T06:43:14.294Z,23.20
2018-08-06T06:45:42.238Z,23.50
2018-08-06T06:48:10.364Z,23.90
2018-08-06T06:50:38.681Z,24.60
2018-08-06T06:53:06.856Z,24.90
2018-08-06T06:55:34.980Z,24.80
2018-08-06T06:58:03.463Z,24.70
2018-08-06T07:00:31.699Z,24.70
2018-08-06T07:03:00.059Z,24.60
2018-08-06T07:05:28.003Z,24.80
2018-08-06T07:07:55.782Z,25.00
2018-08-06T07:10:23.820Z,25.30
2018-08-06T07:12:52.545Z,25.80
2018-08-06T07:15:20.465Z,26.10
2018-08-06T07:17:48.825Z,26.20
2018-08-06T07:20:18.811Z,26.10
2018-08-06T07:22:46.981Z,26.10
2018-08-06T07:25:14.954Z,25.90
2018-08-06T07:27:43.434Z,25.50
2018-08-06T07:30:13.499Z,25.20
2018-08-06T07:32:42.555Z,25.10
2018-08-06T07:35:11.796Z,25.10
2018-08-06T07:37:40.902Z,25.20
2018-08-06T07:40:10.900Z,25.20
2018-08-06T07:42:39.303Z,25.20
2018-08-06T07:45:10.479Z,25.00
2018-08-06T07:47:38.921Z,25.00
2018-08-06T07:50:09.185Z,24.90
2018-08-06T07:52:37.324Z,24.80
2018-08-06T07:55:05.591Z,24.90
2018-08-06T07:57:33.726Z,24.90
2018-08-06T08:00:02.169Z,24.90
2018-08-06T08:02:30.140Z,24.80
2018-08-06T08:04:57.898Z,24.60
2018-08-06T08:07:26.184Z,24.50
2018-08-06T08:09:54.148Z,24.60
2018-08-06T08:12:22.422Z,24.60
2018-08-06T08:14:50.504Z,24.90
2018-08-06T08:17:20.154Z,25.20
2018-08-06T08:19:49.057Z,25.30
2018-08-06T08:22:18.463Z,25.20
2018-08-06T08:24:47.674Z,25.10
2018-08-06T08:27:16.703Z,25.00
2018-08-06T08:29:44.715Z,25.00
2018-08-06T08:32:13.545Z,25.00
2018-08-06T08:34:43.952Z,25.00
2018-08-06T08:37:14.933Z,25.00
2018-08-06T08:39:43.150Z,25.00
2018-08-06T08:42:11.963Z,25.00
2018-08-06T08:44:40.714Z,25.20
2018-08-06T08:47:09.454Z,25.00
2018-08-06T08:49:38.239Z,24.80
2018-08-06T08:52:07.168Z,24.80
2018-08-06T08:54:35.411Z,24.80
2018-08-06T08:57:04.200Z,24.90
2018-08-06T08:59:33.848Z,24.90
2018-08-06T09:02:03.000Z,24.90
2018-08-06T09:04:31.447Z,25.00
2018-08-06T09:07:01.894Z,25.30
2018-08-06T09:09:30.111Z,25.50
2018-08-06T09:11:59.687Z,25.70
2018-08-06T09:14:28.985Z,25.70
2018-08-06T09:16:57.981Z,25.70
2018-08-06T09:19:28.399Z,25.80
2018-08-06T09:21:57.630Z,26.00
2018-08-06T09:24:27.822Z,25.80
2018-08-06T09:26:56.170Z,25.80
2018-08-06T09:29:25.567Z,25.90
2018-08-06T09:31:54.890Z,26.00
2018-08-06T09:34:24.161Z,26.00
2018-08-06T09:36:53.091Z,26.20
2018-08-06T09:39:22.148Z,26.10
2018-08-06T09:41:50.871Z,26.20
2018-08-06T09:44:20.318Z,26.40
2018-08-06T09:46:50.393Z,26.60
2018-08-06T09:49:18.782Z,26.80
2018-08-06T09:51:47.033Z,27.00
2018-08-06T09:54:16.170Z,26.80
2018-08-06T09:56:46.198Z,26.80
2018-08-06T09:59:15.426Z,26.70
2018-08-06T10:01:49.695Z,26.80
2018-08-06T10:04:17.737Z,27.10
2018-08-06T10:06:46.188Z,26.80
2018-08-06T10:09:14.945Z,27.00
2018-08-06T10:11:43.176Z,27.10
2018-08-06T10:14:12.105Z,26.80
2018-08-06T10:16:40.367Z,26.60
2018-08-06T10:19:08.768Z,26.70
2018-08-06T10:21:38.076Z,26.90
2018-08-06T10:24:06.459Z,26.90
2018-08-06T10:26:36.131Z,27.20
2018-08-06T10:31:32.440Z,27.50
2018-08-06T10:34:00.263Z,27.50
2018-08-06T10:36:28.351Z,27.40
2018-08-06T10:38:56.661Z,26.90
2018-08-06T10:41:25.081Z,27.10
2018-08-06T10:43:53.371Z,27.30
2018-08-06T10:46:21.373Z,27.40
2018-08-06T10:48:49.459Z,27.40
2018-08-06T10:51:17.913Z,27.50
2018-08-06T10:53:46.179Z,27.50
2018-08-06T10:56:14.072Z,27.60
2018-08-06T10:58:42.495Z,27.70
2018-08-06T11:01:10.495Z,27.90
2018-08-06T11:03:39.386Z,28.00
2018-08-06T11:06:07.395Z,28.10
2018-08-06T11:08:35.148Z,28.30
2018-08-06T11:11:03.409Z,28.40
2018-08-06T11:13:32.490Z,28.20
2018-08-06T11:16:00.645Z,28.20
2018-08-06T11:18:29.010Z,28.30
2018-08-06T11:20:57.044Z,28.00
2018-08-06T11:23:25.118Z,28.10
2018-08-06T11:25:53.515Z,28.10
2018-08-06T11:28:22.042Z,28.10
2018-08-06T11:30:50.249Z,28.00
2018-08-06T11:33:18.707Z,28.00
2018-08-06T11:35:47.375Z,28.20
2018-08-06T11:38:15.527Z,28.40
2018-08-06T11:40:43.960Z,28.70
2018-08-06T11:43:12.182Z,28.60
2018-08-06T11:45:40.530Z,28.70
2018-08-06T11:48:08.974Z,28.70
2018-08-06T11:50:37.499Z,28.80
2018-08-06T11:53:05.364Z,28.60
2018-08-06T11:55:33.834Z,28.40
2018-08-06T11:58:01.778Z,28.40
2018-08-06T12:00:29.972Z,28.40
2018-08-06T12:02:58.175Z,28.50
2018-08-06T12:05:26.273Z,28.70
2018-08-06T12:07:54.805Z,28.90
2018-08-06T12:10:22.734Z,28.70
2018-08-06T12:12:51.241Z,28.80
2018-08-06T12:15:19.249Z,28.70
2018-08-06T12:17:47.592Z,28.60
2018-08-06T12:20:17.280Z,28.60
2018-08-06T12:22:46.772Z,28.60
2018-08-06T12:25:17.099Z,28.60
2018-08-06T12:27:45.564Z,28.80
2018-08-06T12:30:15.771Z,28.70
2018-08-06T12:32:44.697Z,28.70
2018-08-06T12:35:12.811Z,28.90
2018-08-06T12:37:41.516Z,29.20
2018-08-06T12:40:12.956Z,29.30
2018-08-06T12:42:41.899Z,29.40
2018-08-06T12:45:11.301Z,29.40
2018-08-06T12:47:39.866Z,29.40
2018-08-06T12:50:09.238Z,29.20
2018-08-06T12:52:38.310Z,28.90
2018-08-06T12:55:08.231Z,28.70
2018-08-06T12:57:36.523Z,28.80
2018-08-06T13:00:07.527Z,29.00
2018-08-06T13:02:35.680Z,29.10
2018-08-06T13:05:04.604Z,29.30
2018-08-06T13:07:32.734Z,29.40
2018-08-06T13:10:02.014Z,29.20
2018-08-06T13:12:30.213Z,29.20
2018-08-06T13:14:58.528Z,29.10
2018-08-06T13:17:26.486Z,29.20
2018-08-06T13:19:54.601Z,29.20
2018-08-06T13:22:22.990Z,29.20
2018-08-06T13:24:51.053Z,29.20
2018-08-06T13:27:19.454Z,29.20
2018-08-06T13:29:47.866Z,29.30
2018-08-06T13:32:16.173Z,29.50
2018-08-06T13:34:44.907Z,29.50
2018-08-06T13:37:12.664Z,29.50
2018-08-06T13:39:40.676Z,29.50
2018-08-06T13:42:09.834Z,29.50
2018-08-06T13:44:38.446Z,29.50
2018-08-06T13:47:06.421Z,29.50
2018-08-06T13:49:34.943Z,29.50
2018-08-06T13:52:04.766Z,29.70
2018-08-06T13:54:33.427Z,29.80
2018-08-06T13:57:01.417Z,29.80
2018-08-06T13:59:29.726Z,29.70
2018-08-06T14:01:57.827Z,29.70
2018-08-06T14:04:26.347Z,29.80
2018-08-06T14:06:54.171Z,29.70
2018-08-06T14:09:22.187Z,29.60
2018-08-06T14:11:50.999Z,29.60
2018-08-06T14:14:20.370Z,29.70
2018-08-06T14:16:48.440Z,29.70
2018-08-06T14:19:16.490Z,29.70
2018-08-06T14:21:44.726Z,29.70
2018-08-06T14:24:12.908Z,29.80
2018-08-06T14:26:41.023Z,29.60
2018-08-06T14:29:09.292Z,29.60
2018-08-06T14:31:38.518Z,29.70
2018-08-06T14:34:06.984Z,29.60
2018-08-06T14:36:36.457Z,29.70
2018-08-06T14:39:07.982Z,29.80
2018-08-06T14:41:37.805Z,29.90
2018-08-06T14:44:07.176Z,29.70
2018-08-06T14:46:37.380Z,29.50
2018-08-06T14:49:06.105Z,29.40
2018-08-06T14:51:34.699Z,29.40
2018-08-06T14:54:03.388Z,29.50
2018-08-06T14:56:31.776Z,29.60
2018-08-06T15:01:27.935Z,29.70
2018-08-06T15:03:56.373Z,29.60
2018-08-06T15:06:24.861Z,29.60
2018-08-06T15:08:52.822Z,29.70
2018-08-06T15:11:21.023Z,29.80
2018-08-06T15:13:49.575Z,29.90
2018-08-06T15:16:17.508Z,29.90
2018-08-06T15:18:45.731Z,29.90
2018-08-06T15:21:13.753Z,29.80
2018-08-06T15:23:42.209Z,29.80
2018-08-06T15:26:10.353Z,29.80
2018-08-06T15:28:38.271Z,29.80
2018-08-06T15:31:07.271Z,29.70
2018-08-06T15:33:35.403Z,29.80
2018-08-06T15:36:03.923Z,29.80
2018-08-06T15:38:33.651Z,29.80
2018-08-06T15:41:02.005Z,29.70
2018-08-06T15:43:30.975Z,29.70
2018-08-06T15:45:59.113Z,29.80
2018-08-06T15:48:26.783Z,29.60
2018-08-06T15:50:55.204Z,29.60
2018-08-06T15:53:22.908Z,29.60
2018-08-06T15:55:50.957Z,29.50
2018-08-06T15:58:18.952Z,29.40
2018-08-06T16:00:47.121Z,29.40
2018-08-06T16:03:15.415Z,29.40
2018-08-06T16:05:43.476Z,29.30
2018-08-06T16:08:11.795Z,29.30
2018-08-06T16:10:40.031Z,29.30
2018-08-06T16:13:08.577Z,29.30
2018-08-06T16:15:36.660Z,29.30
2018-08-06T16:18:05.022Z,29.30
2018-08-06T16:20:33.053Z,29.20
2018-08-06T16:23:01.387Z,29.20
2018-08-06T16:25:29.582Z,29.10
2018-08-06T16:27:57.634Z,29.20
2018-08-06T16:30:26.319Z,29.20
2018-08-06T16:32:54.370Z,29.10
2018-08-06T16:35:23.620Z,29.10
2018-08-06T16:37:53.224Z,29.00
2018-08-06T16:40:21.312Z,28.90
2018-08-06T16:42:50.175Z,28.70
2018-08-06T16:45:18.545Z,28.60
2018-08-06T16:47:46.940Z,28.50
2018-08-06T16:50:16.535Z,28.60
2018-08-06T16:52:45.050Z,28.50
2018-08-06T16:55:13.174Z,28.50
2018-08-06T16:57:41.455Z,28.40
2018-08-06T17:00:17.187Z,28.40
2018-08-06T17:02:45.600Z,28.30
2018-08-06T17:05:14.332Z,28.20
2018-08-06T17:07:43.617Z,28.10
2018-08-06T17:10:13.958Z,28.00
2018-08-06T17:12:43.798Z,28.00
2018-08-06T17:15:13.750Z,27.70
2018-08-06T17:17:42.364Z,27.40
2018-08-06T17:20:14.824Z,27.20
2018-08-06T17:22:44.101Z,26.90
2018-08-06T17:25:12.473Z,26.60
2018-08-06T17:27:40.796Z,26.40
2018-08-06T17:30:10.679Z,26.20
2018-08-06T17:32:39.266Z,26.00
2018-08-06T17:37:36.565Z,25.70
2018-08-06T17:40:10.810Z,25.50
2018-08-06T17:42:39.602Z,25.40
2018-08-06T17:45:11.983Z,25.30
2018-08-06T17:47:40.956Z,25.20
2018-08-06T17:50:12.029Z,25.10
2018-08-06T17:52:40.103Z,24.90
2018-08-06T17:55:08.358Z,24.90
2018-08-06T17:57:36.938Z,24.70
2018-08-06T18:00:07.629Z,24.60
2018-08-06T18:02:36.816Z,24.40
2018-08-06T18:05:05.887Z,24.20
2018-08-06T18:07:34.073Z,24.10
2018-08-06T18:10:02.314Z,23.90
2018-08-06T18:12:31.024Z,23.70
2018-08-06T18:14:59.352Z,23.50
2018-08-06T18:17:27.304Z,23.40
2018-08-06T18:19:55.231Z,23.20
2018-08-06T18:22:23.952Z,23.00
2018-08-06T18:24:52.044Z,22.80
2018-08-06T18:27:21.587Z,22.70
2018-08-06T18:29:50.341Z,22.60
2018-08-06T18:32:18.902Z,22.50
2018-08-06T18:34:47.352Z,22.40
2018-08-06T18:37:15.257Z,22.30
2018-08-06T18:39:43.674Z,22.10
2018-08-06T18:42:12.859Z,22.00
2018-08-06T18:44:42.793Z,21.90
2018-08-06T18:47:10.959Z,21.70
2018-08-06T18:49:40.283Z,21.60
2018-08-06T18:52:12.851Z,21.50
2018-08-06T18:54:41.713Z,21.30
2018-08-06T18:57:09.991Z,21.20
2018-08-06T18:59:38.832Z,21.00
2018-08-06T19:02:07.317Z,20.90
2018-08-06T19:04:35.853Z,20.70
2018-08-06T19:07:04.299Z,20.60
2018-08-06T19:09:32.894Z,20.40
2018-08-06T19:12:08.924Z,20.30
2018-08-06T19:14:37.796Z,20.20
2018-08-06T19:17:05.934Z,20.10
2018-08-06T19:19:35.734Z,20.00
2018-08-06T19:22:05.901Z,19.90
2018-08-06T19:24:39.425Z,19.80
2018-08-06T19:27:07.745Z,19.70
2018-08-06T19:29:35.895Z,19.60
2018-08-06T19:32:05.585Z,19.50
2018-08-06T19:34:34.781Z,19.30
2018-08-06T19:37:08.680Z,19.10
2018-08-06T19:39:37.929Z,19.00
2018-08-06T19:42:06.705Z,18.80
2018-08-06T19:44:34.797Z,18.70
2018-08-06T19:47:03.193Z,18.60
2018-08-06T19:49:38.607Z,18.50
2018-08-06T19:52:08.172Z,18.50
2018-08-06T19:54:36.886Z,18.40
2018-08-06T19:57:06.764Z,18.40
2018-08-06T19:59:38.084Z,18.30
2018-08-06T20:02:07.492Z,18.20
2018-08-06T20:04:36.941Z,18.10
2018-08-06T20:07:05.513Z,18.10
2018-08-06T20:09:36.071Z,17.90
2018-08-06T20:12:04.568Z,17.70
2018-08-06T20:14:34.873Z,17.60
2018-08-06T20:17:03.741Z,17.60
2018-08-06T20:19:32.409Z,17.50
2018-08-06T20:22:01.115Z,17.40
2018-08-06T20:24:30.454Z,17.30
2018-08-06T20:26:58.506Z,17.30
2018-08-06T20:29:27.418Z,17.10
2018-08-06T20:31:56.713Z,17.10
2018-08-06T20:34:26.693Z,17.00
2018-08-06T20:36:55.063Z,17.00
2018-08-06T20:39:24.477Z,17.00
2018-08-06T20:41:53.071Z,16.80
2018-08-06T20:44:22.840Z,16.80
2018-08-06T20:46:50.912Z,16.70
2018-08-06T20:49:19.871Z,16.70
2018-08-06T20:51:50.844Z,16.60
2018-08-06T20:54:18.927Z,16.60
2018-08-06T20:56:47.555Z,16.50
2018-08-06T20:59:16.441Z,16.50
2018-08-06T21:01:44.703Z,16.40
2018-08-06T21:04:13.598Z,16.40
2018-08-06T21:06:41.933Z,16.30
2018-08-06T21:09:11.222Z,16.30
2018-08-06T21:11:40.962Z,16.20
2018-08-06T21:14:09.472Z,16.20
2018-08-06T21:16:39.068Z,16.10
2018-08-06T21:19:07.431Z,16.00
2018-08-06T21:21:37.298Z,16.00
2018-08-06T21:24:05.548Z,15.90
2018-08-06T21:26:34.720Z,15.90
2018-08-06T21:29:02.777Z,15.80
2018-08-06T21:31:32.216Z,15.80
2018-08-06T21:34:00.226Z,15.70
2018-08-06T21:36:29.789Z,15.70
2018-08-06T21:38:59.372Z,15.70
2018-08-06T21:41:29.354Z,15.70
2018-08-06T21:43:57.641Z,15.70
2018-08-06T21:46:25.910Z,15.70
2018-08-06T21:48:54.412Z,15.60
2018-08-06T21:51:22.533Z,15.50
2018-08-06T21:53:50.408Z,15.50
2018-08-06T21:58:46.522Z,15.40
2018-08-06T22:01:14.897Z,15.30
2018-08-06T22:03:42.963Z,15.30
2018-08-06T22:06:10.995Z,15.20
2018-08-06T22:08:39.220Z,15.20
2018-08-06T22:11:07.870Z,15.20
2018-08-06T22:13:36.305Z,15.20
2018-08-06T22:16:04.891Z,15.20
2018-08-06T22:21:01.248Z,15.10
2018-08-06T22:23:29.533Z,15.10
2018-08-06T22:25:57.764Z,15.00
2018-08-06T22:28:25.921Z,15.10
2018-08-06T22:30:54.138Z,15.00
2018-08-06T22:33:22.269Z,15.00
2018-08-06T22:35:50.383Z,15.00
2018-08-06T22:38:18.616Z,15.00
2018-08-06T22:40:46.502Z,15.00
2018-08-06T22:45:43.406Z,14.90
2018-08-06T22:48:11.866Z,14.90
2018-08-06T22:50:40.041Z,14.80
2018-08-06T22:53:08.382Z,14.80
2018-08-06T22:55:47.695Z,14.80
2018-08-06T22:58:15.810Z,14.80
2018-08-06T23:03:12.163Z,14.80
2018-08-06T23:08:08.133Z,14.70
2018-08-06T23:10:36.136Z,14.60
2018-08-06T23:13:04.901Z,14.60
2018-08-06T23:15:33.410Z,14.60
2018-08-06T23:18:01.383Z,14.60
2018-08-06T23:20:29.459Z,14.60
2018-08-06T23:22:57.503Z,14.60
2018-08-06T23:25:25.789Z,14.50
2018-08-06T23:27:53.732Z,14.50
2018-08-06T23:30:22.072Z,14.50
2018-08-06T23:32:50.351Z,14.60
2018-08-06T23:35:18.349Z,14.60
2018-08-06T23:37:46.170Z,14.60
2018-08-06T23:42:42.890Z,14.60
2018-08-06T23:45:12.685Z,14.50
2018-08-06T23:47:41.286Z,14.50
2018-08-06T23:50:11.075Z,14.40
2018-08-06T23:52:40.000Z,14.40
2018-08-06T23:55:09.113Z,14.30
2018-08-06T23:57:37.496Z,14.30
